Overview Statistics Trail Chart Weather Telemetry Raw packets
 

This is the latest recevied weather packets stored in our database for station/object E23BMY-13. If no packets are shown the sender has not sent any weather packets the latest 10 day(s).

<< 67 68 69 70 71 72 73 >>
Time Temp. Humidity Pressure Rain* Wind** Luminosity Snow
1788082504 28.33° C 92% 1006.7 hPa 0 mm - - -
1788082203 27.78° C 91% 1006.7 hPa 0 mm - - -
1788081904 27.78° C 91% 1006.8 hPa 0 mm - - -
1788081613 27.78° C 91% 1006.6 hPa 0 mm - - -
1788081303 27.78° C 90% 1006.7 hPa 0 mm - - -
1788081004 27.78° C 90% 1006.4 hPa 0 mm - - -
1788080703 27.78° C 90% 1006.2 hPa 0 mm - - -
1788080404 27.78° C 90% 1006.2 hPa 0 mm - - -
1788080103 27.22° C 89% 1006.3 hPa 0.51 mm - - -
1788079803 27.22° C 87% 1006.3 hPa 1.52 mm - - -
1788079504 27.22° C 87% 1006.5 hPa 1.78 mm - - -
1788079203 27.78° C 86% 1006.4 hPa 2.79 mm - - -
1788078903 28.33° C 83% 1006.6 hPa 5.33 mm - - -
1788078604 29.44° C 79% 1006.7 hPa 4.83 mm - - -
1788078304 31.11° C 72% 1006.9 hPa 3.56 mm - - -
1788078003 33.33° C 62% 1006.6 hPa 0 mm - - -
1788077703 33.89° C 60% 1006.3 hPa 0 mm - - -
1788077403 33.89° C 59% 1006.5 hPa 0 mm - - -
1788077104 33.89° C 61% 1006.5 hPa 0 mm - - -
1788076804 33.89° C 62% 1006.6 hPa 0 mm - - -
1788076503 33.33° C 62% 1006.7 hPa 0 mm - - -
1788076203 33.33° C 62% 1006.8 hPa 0 mm - - -
1788075904 33.33° C 62% 1006.8 hPa 0 mm - - -
1788075603 33.33° C 62% 1006.8 hPa 0 mm - - -
1788075304 33.33° C 62% 1006.9 hPa 0 mm - - -

* Rain latest hour (hover to see other rain measurements)
** Current wind speed in m/s (hover to see current wind gust speed)